Terminal Aerodrome Forecast
Issued by NWS

Home | Current Version | Previous Version | Graphics & Text | Print | Product List | Glossary On
Versions: 1 2 3 4 5 6 7 8 9 10 11 12 13 14 15 16
539
FTUS43 KGRB 120520
TAFAUW
TAF
KAUW 120520Z 1206/1306 28007KT P6SM BKN035
     FM120900 30008G15KT P6SM BKN025
     FM121500 32015G25KT P6SM -SN BKN035
     FM130000 32010KT P6SM SCT040=

USA.gov is the U.S. government's official web portal to all federal, state and local government web resources and services.